createdAt,value
2023-03-15T00:00:01.608Z,94369.75
2023-03-15T00:02:31.651Z,94357.89
2023-03-15T00:05:01.937Z,94354.84
2023-03-15T00:07:31.358Z,94353.83
2023-03-15T00:10:01.267Z,94353.42
2023-03-15T00:12:29.898Z,94329.34
2023-03-15T00:14:58.612Z,94342.08
2023-03-15T00:17:27.316Z,94342.12
2023-03-15T00:19:56.108Z,94347.94
2023-03-15T00:22:24.980Z,94352.20
2023-03-15T00:24:53.670Z,94347.02
2023-03-15T00:27:25.225Z,94347.97
2023-03-15T00:29:53.990Z,94351.58
2023-03-15T00:32:23.090Z,94353.03
2023-03-15T00:34:53.544Z,94353.69
2023-03-15T00:37:24.664Z,94345.85
2023-03-15T00:39:55.307Z,94341.89
2023-03-15T00:42:25.605Z,94334.19
2023-03-15T00:44:57.488Z,94329.92
2023-03-15T00:47:26.195Z,94325.02
2023-03-15T00:49:54.831Z,94324.22
2023-03-15T00:52:34.618Z,94332.92
2023-03-15T00:55:02.892Z,94337.29
2023-03-15T00:57:33.636Z,94327.36
2023-03-15T01:00:03.948Z,94319.49
2023-03-15T01:02:32.614Z,94317.44
2023-03-15T01:05:01.941Z,94319.72
2023-03-15T01:07:32.300Z,94311.59
2023-03-15T01:10:02.195Z,94305.55
2023-03-15T01:12:33.955Z,94304.00
2023-03-15T01:15:04.892Z,94300.84
2023-03-15T01:17:33.581Z,94297.50
2023-03-15T01:20:02.311Z,94300.48
2023-03-15T01:22:31.090Z,94297.84
2023-03-15T01:24:59.781Z,94295.19
2023-03-15T01:27:29.043Z,94292.09
2023-03-15T01:29:57.702Z,94286.03
2023-03-15T01:32:29.358Z,94287.14
2023-03-15T01:34:58.038Z,94281.84
2023-03-15T01:37:29.537Z,94283.70
2023-03-15T01:39:58.399Z,94285.39
2023-03-15T01:42:34.244Z,94280.88
2023-03-15T01:45:02.911Z,94276.06
2023-03-15T01:47:36.122Z,94275.74
2023-03-15T01:50:07.790Z,94271.13
2023-03-15T01:52:40.974Z,94262.06
2023-03-15T01:55:15.760Z,94264.61
2023-03-15T01:57:50.390Z,94264.36
2023-03-15T02:00:22.633Z,94256.69
2023-03-15T02:03:03.853Z,94248.95
2023-03-15T02:05:35.702Z,94255.34
2023-03-15T02:08:09.065Z,94256.05
2023-03-15T02:10:44.136Z,94249.86
2023-03-15T02:13:18.649Z,94249.67
2023-03-15T02:15:49.362Z,94236.13
2023-03-15T02:18:20.718Z,94231.96
2023-03-15T02:21:05.674Z,94228.66
2023-03-15T02:23:35.191Z,94227.59
2023-03-15T02:26:13.001Z,94229.09
2023-03-15T02:28:46.417Z,94216.08
2023-03-15T02:31:18.866Z,94221.52
2023-03-15T02:33:58.345Z,94223.80
2023-03-15T02:36:31.462Z,94220.60
2023-03-15T02:39:00.129Z,94222.39
2023-03-15T02:41:37.977Z,94221.58
2023-03-15T02:44:30.728Z,94222.80
2023-03-15T02:47:05.891Z,94220.06
2023-03-15T02:49:37.482Z,94221.45
2023-03-15T02:52:07.673Z,94222.69
2023-03-15T02:54:36.807Z,94211.77
2023-03-15T02:57:10.353Z,94204.62
2023-03-15T02:59:39.889Z,94206.03
2023-03-15T03:02:14.842Z,94205.91
2023-03-15T03:04:45.141Z,94210.31
2023-03-15T03:07:13.865Z,94207.19
2023-03-15T03:09:42.550Z,94201.98
2023-03-15T03:12:11.449Z,94204.98
2023-03-15T03:14:43.521Z,94199.11
2023-03-15T03:17:12.241Z,94190.15
2023-03-15T03:19:43.928Z,94188.83
2023-03-15T03:22:16.998Z,94189.47
2023-03-15T03:24:46.290Z,94187.08
2023-03-15T03:27:15.754Z,94177.20
2023-03-15T03:29:45.064Z,94189.08
2023-03-15T03:32:16.192Z,94181.98
2023-03-15T03:34:51.686Z,94174.47
2023-03-15T03:37:23.410Z,94171.14
2023-03-15T03:39:55.097Z,94167.81
2023-03-15T03:42:23.884Z,94171.88
2023-03-15T03:44:54.225Z,94161.38
2023-03-15T03:47:26.664Z,94155.41
2023-03-15T03:49:56.839Z,94156.44
2023-03-15T03:52:27.134Z,94162.16
2023-03-15T03:54:56.216Z,94154.16
2023-03-15T03:57:24.862Z,94153.30
2023-03-15T03:59:53.645Z,94153.20
2023-03-15T04:02:22.729Z,94150.76
2023-03-15T04:04:51.359Z,94154.63
2023-03-15T04:07:20.019Z,94149.13
2023-03-15T04:09:51.107Z,94143.95
2023-03-15T04:12:19.892Z,94144.19
2023-03-15T04:14:49.941Z,94140.78
2023-03-15T04:17:18.553Z,94140.59
2023-03-15T04:19:49.885Z,94133.88
2023-03-15T04:22:18.508Z,94136.42
2023-03-15T04:24:56.085Z,94131.86
2023-03-15T04:27:24.761Z,94137.55
2023-03-15T04:29:53.570Z,94136.12
2023-03-15T04:32:22.137Z,94134.38
2023-03-15T04:34:56.059Z,94136.62
2023-03-15T04:37:24.769Z,94128.09
2023-03-15T04:39:55.258Z,94124.23
2023-03-15T04:42:26.534Z,94129.05
2023-03-15T04:44:56.558Z,94137.34
2023-03-15T04:47:25.290Z,94135.58
2023-03-15T04:49:55.481Z,94134.32
2023-03-15T04:52:24.332Z,94133.84
2023-03-15T04:54:56.416Z,94133.66
2023-03-15T04:57:26.423Z,94138.73
2023-03-15T04:59:55.281Z,94138.41
2023-03-15T05:02:26.830Z,94130.84
2023-03-15T05:04:58.917Z,94119.59
2023-03-15T05:07:28.069Z,94126.76
2023-03-15T05:09:57.223Z,94131.03
2023-03-15T05:12:26.099Z,94133.56
2023-03-15T05:14:55.554Z,94136.99
2023-03-15T05:17:24.621Z,94134.86
2023-03-15T05:19:53.296Z,94131.94
2023-03-15T05:22:23.676Z,94130.70
2023-03-15T05:24:53.923Z,94135.23
2023-03-15T05:27:22.585Z,94130.25
2023-03-15T05:29:55.646Z,94136.35
2023-03-15T05:32:26.058Z,94129.20
2023-03-15T05:35:00.399Z,94127.69
2023-03-15T05:37:29.158Z,94125.39
2023-03-15T05:39:58.070Z,94123.19
2023-03-15T05:42:28.826Z,94123.07
2023-03-15T05:44:58.546Z,94124.56
2023-03-15T05:47:31.110Z,94131.77
2023-03-15T05:50:00.825Z,94132.39
2023-03-15T05:52:31.968Z,94121.58
2023-03-15T05:55:03.485Z,94119.64
2023-03-15T05:57:33.618Z,94116.34
2023-03-15T06:00:02.329Z,94122.90
2023-03-15T06:02:31.124Z,94119.28
2023-03-15T06:04:59.873Z,94126.80
2023-03-15T06:07:28.850Z,94128.97
2023-03-15T06:09:57.605Z,94128.00
2023-03-15T06:12:27.587Z,94125.93
2023-03-15T06:14:56.240Z,94117.23
2023-03-15T06:17:24.922Z,94116.75
2023-03-15T06:19:53.619Z,94117.27
2023-03-15T06:22:23.992Z,94111.23
2023-03-15T06:24:52.614Z,94123.59
2023-03-15T06:27:32.574Z,94120.17
2023-03-15T06:29:58.722Z,94128.59
2023-03-15T06:32:27.453Z,94127.24
2023-03-15T06:34:56.392Z,94126.48
2023-03-15T06:37:34.738Z,94116.67
2023-03-15T06:39:55.600Z,94110.08
2023-03-15T06:42:24.302Z,94108.50
2023-03-15T06:44:53.158Z,94120.30
2023-03-15T06:47:23.582Z,94127.20
2023-03-15T06:49:52.327Z,94112.98
2023-03-15T06:52:22.638Z,94098.79
2023-03-15T06:54:51.356Z,94101.42
2023-03-15T06:57:19.991Z,94107.47
2023-03-15T06:59:51.451Z,94117.09
2023-03-15T07:02:23.979Z,94117.72
2023-03-15T07:04:52.900Z,94108.78
2023-03-15T07:07:21.645Z,94098.78
2023-03-15T07:09:50.472Z,94097.02
2023-03-15T07:12:21.003Z,94095.68
2023-03-15T07:14:49.821Z,94102.48
2023-03-15T07:17:18.630Z,94102.71
2023-03-15T07:19:56.172Z,94101.41
2023-03-15T07:22:19.804Z,94094.20
2023-03-15T07:24:48.599Z,94088.09
2023-03-15T07:27:19.306Z,94092.89
2023-03-15T07:29:52.538Z,94101.95
2023-03-15T07:32:21.197Z,94102.74
2023-03-15T07:34:50.426Z,94100.66
2023-03-15T07:37:19.592Z,94102.67
2023-03-15T07:39:48.251Z,94098.93
2023-03-15T07:42:17.168Z,94093.58
2023-03-15T07:44:45.934Z,94103.55
2023-03-15T07:47:14.560Z,94104.64
2023-03-15T07:49:46.915Z,94102.37
2023-03-15T07:52:15.743Z,94098.13
2023-03-15T07:54:44.430Z,94103.59
2023-03-15T07:57:17.529Z,94094.91
2023-03-15T07:59:45.475Z,94088.08
2023-03-15T08:02:16.147Z,94093.19
2023-03-15T08:04:45.038Z,94090.31
2023-03-15T08:07:13.724Z,94087.86
2023-03-15T08:09:42.410Z,94080.89
2023-03-15T08:12:13.350Z,94076.05
2023-03-15T08:14:41.826Z,94073.19
2023-03-15T08:17:12.169Z,94069.56
2023-03-15T08:19:43.743Z,94062.08
2023-03-15T08:22:14.969Z,94057.00
2023-03-15T08:24:45.484Z,94046.23
2023-03-15T08:27:17.748Z,94047.43
2023-03-15T08:42:39.600Z,94056.89
2023-03-15T08:45:22.116Z,94055.32
2023-03-15T08:51:11.490Z,94040.16
2023-03-15T08:57:25.280Z,94045.02
2023-03-15T08:59:58.015Z,94050.57
2023-03-15T09:09:17.434Z,94051.38
2023-03-15T09:12:01.503Z,94043.80
2023-03-15T09:14:38.960Z,94047.27
2023-03-15T09:17:09.725Z,94047.18
2023-03-15T09:19:40.632Z,94047.63
2023-03-15T09:22:16.728Z,94046.52
2023-03-15T09:24:40.837Z,94050.28
2023-03-15T09:27:11.210Z,94053.03
2023-03-15T09:29:40.747Z,94048.09
2023-03-15T09:32:13.783Z,94051.55
2023-03-15T09:34:43.265Z,94046.20
2023-03-15T09:37:13.766Z,94054.65
2023-03-15T09:39:42.454Z,94049.36
2023-03-15T09:42:16.664Z,94032.98
2023-03-15T09:45:09.112Z,94028.97
2023-03-15T09:47:49.404Z,94032.09
2023-03-15T09:50:33.345Z,94026.55
2023-03-15T09:53:07.142Z,94022.68
2023-03-15T09:55:47.140Z,94025.22
2023-03-15T09:58:39.288Z,94018.77
2023-03-15T10:01:14.474Z,94022.98
2023-03-15T10:04:07.344Z,94015.50
2023-03-15T10:09:32.208Z,94014.61
2023-03-15T10:12:11.014Z,94025.09
2023-03-15T10:15:27.868Z,94018.09
2023-03-15T10:18:14.974Z,94021.73
2023-03-15T10:20:53.422Z,94018.34
2023-03-15T10:23:31.460Z,94019.62
2023-03-15T10:26:09.885Z,94018.84
2023-03-15T10:29:07.567Z,94024.88
2023-03-15T10:31:45.096Z,94026.91
2023-03-15T10:35:01.494Z,94016.98
2023-03-15T10:37:39.383Z,94006.64
2023-03-15T10:42:55.493Z,94008.70
2023-03-15T10:45:30.797Z,94017.70
2023-03-15T10:57:26.175Z,93999.89
2023-03-15T11:03:38.605Z,94014.92
2023-03-15T11:06:25.477Z,94004.55
2023-03-15T11:08:58.921Z,94008.11
2023-03-15T11:11:29.465Z,94003.11
2023-03-15T11:14:01.740Z,93999.83
2023-03-15T11:16:33.724Z,93996.92
2023-03-15T11:19:14.085Z,93991.58
2023-03-15T11:21:46.799Z,93994.86
2023-03-15T11:24:21.545Z,93994.21
2023-03-15T11:26:52.468Z,93993.04
2023-03-15T11:29:28.492Z,93995.39
2023-03-15T11:32:02.296Z,93997.23
2023-03-15T11:34:55.630Z,93996.73
2023-03-15T11:37:39.449Z,93996.90
2023-03-15T11:40:26.319Z,93994.64
2023-03-15T11:46:43.820Z,93976.09
2023-03-15T11:49:28.714Z,93984.84
2023-03-15T11:51:59.024Z,93957.52
2023-03-15T11:54:32.535Z,93980.99
2023-03-15T12:00:50.372Z,93973.16
2023-03-15T12:03:36.614Z,93970.38
2023-03-15T12:06:17.148Z,93977.19
2023-03-15T12:08:50.993Z,93970.36
2023-03-15T12:14:49.946Z,93958.48
2023-03-15T12:20:48.153Z,93956.50
2023-03-15T12:23:36.541Z,93951.31
2023-03-15T12:26:26.246Z,93944.51
2023-03-15T12:29:04.820Z,93945.20
2023-03-15T12:32:08.128Z,93949.18
2023-03-15T12:35:01.720Z,93949.57
2023-03-15T12:37:42.553Z,93945.77
2023-03-15T12:40:31.574Z,93938.19
2023-03-15T12:43:03.539Z,93937.50
2023-03-15T12:45:42.474Z,93880.95
2023-03-15T12:48:18.442Z,93940.17
2023-03-15T12:51:07.514Z,93939.33
2023-03-15T12:54:22.255Z,93937.92
2023-03-15T12:57:00.452Z,93932.36
2023-03-15T13:03:19.079Z,93938.59
2023-03-15T13:09:37.849Z,93936.27
2023-03-15T13:15:36.848Z,93933.03
2023-03-15T13:18:13.924Z,93921.59
2023-03-15T13:20:45.563Z,93919.99
2023-03-15T13:23:31.671Z,93919.94
2023-03-15T13:26:17.127Z,93920.80
2023-03-15T13:29:10.199Z,93924.14
2023-03-15T13:31:41.210Z,93933.55
2023-03-15T13:34:18.097Z,93937.05
2023-03-15T13:36:56.908Z,93939.83
2023-03-15T13:39:25.998Z,93940.90
2023-03-15T13:42:27.507Z,93934.37
2023-03-15T13:45:12.308Z,93946.58
2023-03-15T13:47:46.532Z,93940.32
2023-03-15T13:50:17.776Z,93940.58
2023-03-15T13:52:48.096Z,93907.53
2023-03-15T13:58:12.189Z,93937.92
2023-03-15T14:00:41.660Z,93939.77
2023-03-15T14:03:16.888Z,93946.30
2023-03-15T14:05:51.505Z,93949.63
2023-03-15T14:08:32.181Z,93947.75
2023-03-15T14:11:22.473Z,93936.69
2023-03-15T14:13:58.059Z,93937.39
2023-03-15T14:16:57.340Z,93937.67
2023-03-15T14:19:29.716Z,93933.27
2023-03-15T14:22:01.540Z,93942.84
2023-03-15T14:24:41.688Z,93939.39
2023-03-15T14:27:21.693Z,93939.31
2023-03-15T14:29:56.250Z,93945.25
2023-03-15T14:32:41.520Z,93939.70
2023-03-15T14:35:13.631Z,93936.02
2023-03-15T14:37:44.538Z,93930.53
2023-03-15T14:40:16.403Z,93934.77
2023-03-15T14:42:46.615Z,93933.69
2023-03-15T14:45:16.342Z,93929.70
2023-03-15T14:47:56.809Z,93941.34
2023-03-15T14:50:24.181Z,93938.56
2023-03-15T14:52:54.402Z,93938.22
2023-03-15T14:55:33.770Z,93938.13
2023-03-15T14:58:03.887Z,93934.20
2023-03-15T15:00:35.162Z,93930.38
2023-03-15T15:03:05.603Z,93932.70
2023-03-15T15:05:36.728Z,93929.95
2023-03-15T15:08:14.226Z,93929.86
2023-03-15T15:10:44.975Z,93933.77
2023-03-15T15:13:27.154Z,93937.11
2023-03-15T15:15:57.110Z,93933.52
2023-03-15T15:18:40.673Z,93939.33
2023-03-15T15:27:25.730Z,93941.53
2023-03-15T15:40:47.064Z,93953.71
2023-03-15T15:43:15.984Z,93962.64
2023-03-15T15:45:44.771Z,93958.34
2023-03-15T15:48:13.496Z,93970.19
2023-03-15T15:50:42.161Z,93974.19
2023-03-15T15:53:13.891Z,93972.80
2023-03-15T15:55:44.289Z,93975.73
2023-03-15T15:58:14.095Z,93985.31
2023-03-15T16:00:42.752Z,93978.09
2023-03-15T16:03:15.623Z,93983.95
2023-03-15T16:05:44.497Z,93982.94
2023-03-15T16:08:19.275Z,93986.87
2023-03-15T16:14:28.948Z,93984.16
2023-03-15T16:16:57.703Z,93996.21
2023-03-15T16:19:26.385Z,93995.10
2023-03-15T16:21:55.124Z,93994.89
2023-03-15T16:24:27.060Z,93996.18
2023-03-15T16:26:58.679Z,94004.34
2023-03-15T16:29:30.462Z,94002.08
2023-03-15T16:32:10.172Z,94003.98
2023-03-15T16:34:29.946Z,94006.68
2023-03-15T16:36:58.755Z,94009.04
2023-03-15T16:39:27.545Z,94014.36
2023-03-15T16:41:56.250Z,94010.39
2023-03-15T16:44:25.042Z,94012.87
2023-03-15T16:46:53.936Z,94010.99
2023-03-15T16:49:23.144Z,94021.22
2023-03-15T16:55:34.061Z,94027.89
2023-03-15T16:58:05.142Z,94027.70
2023-03-15T17:00:34.161Z,94035.33
2023-03-15T17:03:04.572Z,94042.75
2023-03-15T17:05:34.491Z,94041.77
2023-03-15T17:08:04.237Z,94045.59
2023-03-15T17:10:33.790Z,94053.41
2023-03-15T17:13:26.026Z,94057.02
2023-03-15T17:15:33.875Z,94062.14
2023-03-15T17:18:02.934Z,94062.91
2023-03-15T17:20:31.867Z,94058.31
2023-03-15T17:23:04.344Z,94059.27
2023-03-15T17:25:34.531Z,94061.34
2023-03-15T17:28:06.632Z,94068.74
2023-03-15T17:30:41.518Z,94069.52
2023-03-15T17:46:33.527Z,94086.43
2023-03-15T17:49:06.092Z,94080.92
2023-03-15T17:51:37.502Z,94087.00
2023-03-15T17:54:18.291Z,94088.15
2023-03-15T17:56:47.059Z,94095.52
2023-03-15T17:59:15.645Z,94093.08
2023-03-15T18:01:46.518Z,94096.67
2023-03-15T18:04:17.131Z,94104.83
2023-03-15T18:06:47.568Z,94099.90
2023-03-15T18:09:17.854Z,94107.51
2023-03-15T18:11:46.973Z,94114.87
2023-03-15T18:14:25.952Z,94110.31
2023-03-15T18:16:54.839Z,94117.72
2023-03-15T18:19:29.648Z,94109.73
2023-03-15T18:21:55.818Z,94113.12
2023-03-15T18:24:31.553Z,94115.60
2023-03-15T18:27:05.001Z,94118.41
2023-03-15T18:29:36.618Z,94124.66
2023-03-15T18:32:21.191Z,94124.12
2023-03-15T18:34:49.218Z,94123.72
2023-03-15T18:37:17.898Z,94125.98
2023-03-15T18:39:49.640Z,94132.73
2023-03-15T18:46:27.101Z,94136.73
2023-03-15T18:48:57.336Z,94134.61
2023-03-15T18:51:46.377Z,94146.95
2023-03-15T18:54:18.083Z,94147.14
2023-03-15T18:56:51.112Z,94147.11
2023-03-15T18:59:23.185Z,94149.73
2023-03-15T19:01:53.599Z,94150.05
2023-03-15T19:04:26.737Z,94147.75
2023-03-15T19:06:58.142Z,94137.92
2023-03-15T19:09:34.315Z,94152.95
2023-03-15T19:15:44.117Z,94156.97
2023-03-15T19:18:13.013Z,94159.97
2023-03-15T19:20:43.577Z,94163.41
2023-03-15T19:23:15.566Z,94166.80
2023-03-15T19:25:47.613Z,94171.91
2023-03-15T19:28:20.069Z,94166.38
2023-03-15T19:30:50.031Z,94178.84
2023-03-15T19:33:23.448Z,94181.66
2023-03-15T19:35:57.297Z,94182.98
2023-03-15T19:38:31.495Z,94185.48
2023-03-15T19:41:03.634Z,94180.75
2023-03-15T19:43:38.359Z,94178.44
2023-03-15T19:46:08.675Z,94194.01
2023-03-15T19:48:51.793Z,94188.89
2023-03-15T19:51:24.033Z,94189.00
2023-03-15T20:12:41.105Z,94208.89
2023-03-15T20:39:13.675Z,94234.73
2023-03-15T20:41:44.236Z,94241.98
2023-03-15T20:44:12.976Z,94238.84
2023-03-15T20:46:44.718Z,94235.56
2023-03-15T20:49:14.405Z,94237.06
2023-03-15T20:51:47.343Z,94242.66
2023-03-15T20:54:16.062Z,94242.05
2023-03-15T20:56:46.562Z,94250.67
2023-03-15T20:59:23.958Z,94256.16
2023-03-15T21:02:04.213Z,94266.19
2023-03-15T21:04:45.954Z,94271.08
2023-03-15T21:07:19.109Z,94269.37
2023-03-15T21:09:55.900Z,94279.25
2023-03-15T21:12:34.454Z,94286.14
2023-03-15T21:15:07.598Z,94287.96
2023-03-15T21:17:36.664Z,94291.46
2023-03-15T21:20:07.722Z,94299.98
2023-03-15T21:22:36.682Z,94305.69
2023-03-15T21:25:08.208Z,94305.69
2023-03-15T21:27:39.769Z,94308.00
2023-03-15T21:30:15.425Z,94310.39
2023-03-15T21:32:45.113Z,94316.16
2023-03-15T21:35:17.310Z,94316.16
2023-03-15T21:37:49.147Z,94323.28
2023-03-15T21:40:18.344Z,94322.67
2023-03-15T21:42:53.730Z,94340.78
2023-03-15T21:45:23.446Z,94340.78
2023-03-15T21:47:58.409Z,94337.44
2023-03-15T21:50:31.645Z,94342.21
2023-03-15T21:53:02.437Z,94341.19
2023-03-15T21:55:33.841Z,94354.38
2023-03-15T21:58:07.637Z,94351.48
2023-03-15T22:00:41.896Z,94353.06
2023-03-15T22:03:12.166Z,94351.22
2023-03-15T22:05:42.895Z,94351.22
2023-03-15T22:08:11.568Z,94358.43
2023-03-15T22:10:40.692Z,94373.88
2023-03-15T22:13:09.288Z,94373.88
2023-03-15T22:15:37.991Z,94380.95
2023-03-15T22:18:06.743Z,94378.94
2023-03-15T22:20:35.273Z,94378.94
2023-03-15T22:23:04.807Z,94385.63
2023-03-15T22:25:42.235Z,94379.33
2023-03-15T22:28:10.349Z,94386.02
2023-03-15T22:30:41.925Z,94388.07
2023-03-15T22:33:11.905Z,94388.89
2023-03-15T22:35:43.801Z,94392.37
2023-03-15T22:38:15.839Z,94396.63
2023-03-15T22:40:44.643Z,94395.59
2023-03-15T22:43:13.313Z,94399.47
2023-03-15T22:45:45.243Z,94401.55
2023-03-15T22:48:15.335Z,94401.38
2023-03-15T22:50:51.407Z,94412.69
2023-03-15T22:53:23.151Z,94412.69
2023-03-15T22:55:54.576Z,94412.66
2023-03-15T22:58:25.123Z,94420.41
2023-03-15T23:00:56.818Z,94424.61
2023-03-15T23:03:26.453Z,94431.75
2023-03-15T23:05:56.578Z,94426.13
2023-03-15T23:08:27.309Z,94427.59
2023-03-15T23:10:58.725Z,94426.09
2023-03-15T23:13:43.554Z,94415.55
2023-03-15T23:16:12.159Z,94438.49
2023-03-15T23:18:44.999Z,94442.89
2023-03-15T23:21:17.261Z,94441.08
2023-03-15T23:27:14.397Z,94444.00
2023-03-15T23:29:54.200Z,94445.79
2023-03-15T23:32:15.144Z,94442.68
2023-03-15T23:34:45.655Z,94447.97
2023-03-15T23:37:16.115Z,94451.12
2023-03-15T23:39:50.194Z,94461.33
2023-03-15T23:42:18.944Z,94452.14
2023-03-15T23:44:54.125Z,94466.11
2023-03-15T23:47:27.114Z,94470.36
2023-03-15T23:49:57.017Z,94461.70
2023-03-15T23:52:27.541Z,94465.09
2023-03-15T23:54:59.380Z,94468.05
2023-03-15T23:57:30.624Z,94468.60
2023-03-15T23:59:59.339Z,94472.23
